Peru, IL (61354)

4:16 AM CST on February 06, 2016 (GMT -0600)
Spring Valley | | Change Station
CLOSE
Current Station
Personal Weather Station
Location: Spring Valley, IL
Elevation: 584 ft
Nearby Weather Stations

Elev 584 ft 41.33 °N, 89.22 °W | Updated 22 seconds ago

Overcast
Overcast
26.2 °F
Feels Like 26 °F
N
0.0
Wind Variable Wind from SSW
Gusts 0.0 mph

Today
High -- | Low -- °F
--% Chance of Precip.
Yesterday
High -- | Low -- °F
Precip. -- in
Pressure 30.29 in
Visibility 7.0 miles
Clouds Scattered Clouds 6500 ft
Overcast 7500 ft
Windchill 26 °F
Dew Point 19 °F
Humidity 75%
Rainfall 0.00 in
Snow Depth Not available.
7:03 AM 5:18 PM
Waning Crescent, 6% visible
METAR KVYS 060955Z AUTO 19004KT 7SM SCT065 OVC075 M03/M04 A3029 RMK AO2 T10281036
Pressure 30.29 in
Visibility 7.0 miles
Clouds Scattered Clouds 6500 ft
Overcast 7500 ft
Windchill 26 °F
Dew Point 19 °F
Humidity 75%
Rainfall 0.00 in
Snow Depth Not available.
7:03 AM 5:18 PM
Waning Crescent, 6% visible
METAR KVYS 060955Z AUTO 19004KT 7SM SCT065 OVC075 M03/M04 A3029 RMK AO2 T10281036

10-Day Weather Forecast

Almanac

Astronomy

Feb. 06, 2016 Rise Set
Actual Time
Civil Twilight
Nautical Twilight
Astronomical Twilight
Moon
Length of Visible Light
Length of Day
Tomorrow will be .
, % of the Moon is Illuminated

Today's Extremes

State Highs State Lows

Community

WunderPhotos

Upload Photos

1,890,933 photos uploaded!

WunderBlog® & News

Nearby

Air Quality

  Air Quality AQ Index Pollutant
Not available.

Snow Depth

Station Depth Elevation

Earthquake Activity

City Distance Mag. Time & Date
Minimum magnitude displayed is 2.5.

Coastal Water Temperatures

Place Temperature

Stations

Nearby Weather Stations

Station Location Temp. Windchill Dew Point Humidity Wind Precip. Elev Updated Type
                   

Watches & Warnings

There are currently no watches in effect.